Time;durP1;ratioP1;P1;durP2;ratioP2;P2;SDS_P1;SDS_P2;PMS_P1;PMS_P2;Temp;Humidity;BMP_temperature;BMP_pressure;BME280_temperature;BME280_humidity;BME280_pressure;Samples;Min_cycle;Max_cycle;Signal;HPM_P1;HPM_P2
2021/03/19 00:00:04;;;;;;;16.30;10.80;;;;;;;-3.38;78.52;100531.43;99438;1175;89399;-65
2021/03/19 00:02:09;;;;;;;17.40;9.90;;;;;;;-3.37;78.86;100532.25;99427;1175;81465;-63
2021/03/19 00:04:15;;;;;;;16.25;9.80;;;;;;;-3.41;78.28;100536.90;99444;1175;66942;-63
2021/03/19 00:06:20;;;;;;;18.40;10.70;;;;;;;-3.43;78.14;100533.48;99434;1173;86614;-64
2021/03/19 00:08:25;;;;;;;17.80;10.30;;;;;;;-3.45;78.24;100530.11;99441;1174;75089;-64
2021/03/19 00:10:35;;;;;;;19.95;11.15;;;;;;;-3.48;78.67;100530.30;99435;1168;89789;-63
2021/03/19 00:12:43;;;;;;;20.10;10.40;;;;;;;-3.50;78.66;100524.27;99437;1173;81832;-63
2021/03/19 00:14:48;;;;;;;20.90;11.20;;;;;;;-3.49;78.44;100520.70;99442;1174;66862;-63
2021/03/19 00:16:54;;;;;;;19.60;11.40;;;;;;;-3.54;78.23;100528.04;99435;1175;87434;-64
2021/03/19 00:18:59;;;;;;;20.00;11.80;;;;;;;-3.55;78.00;100517.59;99456;1171;75481;-63
2021/03/19 00:21:06;;;;;;;18.90;11.50;;;;;;;-3.57;77.89;100518.52;99444;1171;89537;-64
2021/03/19 00:23:12;;;;;;;21.90;11.70;;;;;;;-3.61;78.33;100519.68;99426;1175;81215;-63
2021/03/19 00:25:20;;;;;;;20.30;12.10;;;;;;;-3.62;78.20;100519.76;99446;1175;66912;-62
2021/03/19 00:27:26;;;;;;;20.60;11.20;;;;;;;-3.68;78.72;100510.44;99429;1175;87085;-63
2021/03/19 00:29:31;;;;;;;21.90;12.00;;;;;;;-3.67;78.19;100519.20;99446;1168;75171;-62
2021/03/19 00:31:36;;;;;;;23.50;13.40;;;;;;;-3.70;78.43;100519.39;99434;1173;89463;-61
2021/03/19 00:33:41;;;;;;;22.80;13.30;;;;;;;-3.69;78.21;100518.47;99425;1173;81714;-62
2021/03/19 00:35:46;;;;;;;31.30;15.55;;;;;;;-3.69;78.35;100521.11;99443;1175;66918;-63
2021/03/19 00:37:52;;;;;;;29.05;16.10;;;;;;;-3.77;78.40;100518.09;99430;1173;87067;-63
2021/03/19 00:39:57;;;;;;;28.50;16.10;;;;;;;-3.78;78.38;100516.39;99450;1175;75896;-64
2021/03/19 00:42:02;;;;;;;32.80;17.75;;;;;;;-3.76;78.25;100514.50;99446;1173;89007;-63
2021/03/19 00:44:08;;;;;;;31.77;16.40;;;;;;;-3.82;78.45;100517.55;99432;1175;82014;-64
2021/03/19 00:46:16;;;;;;;32.80;18.70;;;;;;;-3.84;78.67;100512.34;99455;1175;66965;-64
2021/03/19 00:48:21;;;;;;;32.40;17.90;;;;;;;-3.79;78.43;100514.72;99438;1175;86980;-64
2021/03/19 00:50:31;;;;;;;33.10;18.55;;;;;;;-3.83;78.59;100514.05;99460;1175;75760;-64
2021/03/19 00:52:37;;;;;;;32.30;18.15;;;;;;;-3.84;78.39;100516.77;99452;1167;88698;-64
2021/03/19 00:54:42;;;;;;;32.80;18.40;;;;;;;-3.85;78.49;100510.67;99421;1175;83021;-63
2021/03/19 00:56:47;;;;;;;33.70;18.23;;;;;;;-3.87;78.32;100512.53;99435;1175;67076;-63
2021/03/19 00:58:52;;;;;;;31.20;17.95;;;;;;;-3.83;78.40;100513.20;99436;1174;87342;-61
2021/03/19 01:00:57;;;;;;;33.60;17.75;;;;;;;-3.82;78.93;100506.98;99451;1167;75909;-61
2021/03/19 01:03:09;;;;;;;31.80;18.10;;;;;;;-3.81;78.31;100517.44;99445;1173;88875;-62
2021/03/19 01:05:18;;;;;;;30.80;17.40;;;;;;;-3.78;78.38;100505.83;99429;1175;82969;-64
2021/03/19 01:07:23;;;;;;;28.60;16.40;;;;;;;-3.78;78.09;100519.03;99448;1173;66983;-64
2021/03/19 01:09:29;;;;;;;28.85;16.30;;;;;;;-3.81;78.35;100513.94;99436;1175;87863;-64
2021/03/19 01:11:37;;;;;;;24.15;14.80;;;;;;;-3.86;78.40;100510.75;99441;1172;74912;-65
2021/03/19 01:13:42;;;;;;;27.75;15.00;;;;;;;-3.87;78.31;100514.34;99435;1168;89036;-64
2021/03/19 01:15:47;;;;;;;28.10;14.95;;;;;;;-3.87;78.41;100512.53;99425;1175;82641;-65
2021/03/19 01:17:53;;;;;;;30.20;15.70;;;;;;;-3.87;78.54;100516.98;99430;1175;66935;-65
2021/03/19 01:19:58;;;;;;;25.80;15.30;;;;;;;-3.90;78.79;100510.08;99431;1173;86915;-62
2021/03/19 01:22:03;;;;;;;29.50;15.60;;;;;;;-3.92;78.33;100519.03;99443;1175;75262;-62
2021/03/19 01:24:10;;;;;;;25.80;16.00;;;;;;;-3.94;78.38;100510.38;99442;1175;89760;-65
2021/03/19 01:26:17;;;;;;;24.50;15.20;;;;;;;-3.91;78.45;100510.19;99416;1168;82996;-65
2021/03/19 01:28:22;;;;;;;27.10;15.40;;;;;;;-3.94;78.31;100500.67;99439;1168;67185;-65
2021/03/19 01:30:35;;;;;;;28.20;16.00;;;;;;;-3.98;78.52;100507.07;99432;1175;87455;-65
2021/03/19 01:32:44;;;;;;;30.20;16.15;;;;;;;-3.99;78.37;100501.91;99452;1172;75352;-65
2021/03/19 01:34:49;;;;;;;24.85;14.65;;;;;;;-4.00;78.80;100508.11;99442;1175;88128;-65
2021/03/19 01:36:54;;;;;;;27.80;15.10;;;;;;;-4.01;78.32;100506.44;99434;1175;82063;-65
2021/03/19 01:39:00;;;;;;;23.10;13.50;;;;;;;-3.99;78.36;100509.82;99435;1175;67063;-65
2021/03/19 01:41:06;;;;;;;25.17;15.07;;;;;;;-4.00;78.51;100510.75;99435;1173;87119;-64
2021/03/19 01:43:13;;;;;;;24.75;14.40;;;;;;;-3.98;78.72;100508.89;99457;1175;75982;-64
2021/03/19 01:46:05;;;;;;;24.75;15.30;;;;;;;-4.02;77.98;100504.73;99452;1175;90009;-62
2021/03/19 01:49:04;;;;;;;23.60;13.15;;;;;;;-4.08;78.38;100507.73;99433;1175;82578;-62
2021/03/19 01:52:04;;;;;;;22.35;13.05;;;;;;;-4.13;78.43;100504.54;99435;1175;66810;-62
2021/03/19 01:55:03;;;;;;;25.35;14.25;;;;;;;-4.19;78.76;100496.07;99435;1175;87464;-62
2021/03/19 01:58:03;;;;;;;22.05;13.25;;;;;;;-4.15;78.63;100501.16;99457;1172;75016;-62
2021/03/19 02:01:03;;;;;;;21.35;13.05;;;;;;;-4.11;78.43;100495.59;99449;1175;89294;-62
2021/03/19 02:04:02;;;;;;;25.20;13.60;;;;;;;-4.04;78.71;100496.08;99427;1168;82086;-62
2021/03/19 02:07:16;;;;;;;22.90;13.05;;;;;;;-4.05;78.54;100497.86;99452;1168;66988;-62
2021/03/19 02:10:15;;;;;;;28.00;13.90;;;;;;;-3.92;78.99;100503.20;99409;1175;87376;-64
2021/03/19 02:13:23;;;;;;;30.40;16.55;;;;;;;-3.90;79.30;100501.34;99427;1175;75698;-64
2021/03/19 02:16:21;;;;;;;35.43;17.87;;;;;;;-3.79;78.87;100501.52;99395;1177;89029;-63
2021/03/19 02:19:20;;;;;;;32.87;17.97;;;;;;;-3.67;79.27;100504.22;99399;1174;81677;-63
2021/03/19 02:22:31;;;;;;;36.13;20.30;;;;;;;-3.53;79.41;100497.21;99398;1175;66946;-63
2021/03/19 02:25:35;;;;;;;32.40;19.60;;;;;;;-3.40;79.14;100504.25;99338;1173;86581;-64
2021/03/19 02:28:34;;;;;;;33.55;20.30;;;;;;;-3.32;79.09;100504.59;99427;1175;75443;-64
2021/03/19 02:31:11;;;;;;;36.13;20.07;;;;;;;-3.26;79.60;100503.36;99440;1175;89603;-64
2021/03/19 02:33:17;;;;;;;32.20;19.10;;;;;;;-3.22;79.44;100505.72;99422;1171;82455;-64
2021/03/19 02:35:24;;;;;;;32.70;19.73;;;;;;;-3.18;79.04;100498.42;99439;1168;67077;-62
2021/03/19 02:37:35;;;;;;;35.10;19.40;;;;;;;-3.18;79.56;100496.63;99441;1168;87241;-63
2021/03/19 02:39:41;;;;;;;33.60;19.30;;;;;;;-3.14;79.09;100499.92;99444;1168;74602;-64
2021/03/19 02:41:49;;;;;;;31.40;18.90;;;;;;;-3.13;79.00;100505.09;99434;1175;90025;-64
2021/03/19 02:43:57;;;;;;;32.00;21.00;;;;;;;-3.07;79.33;100494.13;99429;1175;81563;-64
2021/03/19 02:46:03;;;;;;;34.50;20.35;;;;;;;-2.97;79.53;100504.95;99437;1168;66849;-64
2021/03/19 02:48:09;;;;;;;34.90;19.30;;;;;;;-2.89;78.99;100501.80;99435;1175;87956;-64
2021/03/19 02:50:15;;;;;;;32.40;20.13;;;;;;;-2.95;79.59;100504.84;99468;1167;75399;-62
2021/03/19 02:52:24;;;;;;;31.85;19.20;;;;;;;-2.97;79.16;100509.39;99461;1174;89070;-62
2021/03/19 02:54:29;;;;;;;33.10;20.50;;;;;;;-2.96;79.44;100522.48;99424;1175;82864;-64
2021/03/19 02:56:37;;;;;;;31.45;20.55;;;;;;;-2.97;79.88;100514.68;99441;1175;67110;-64
2021/03/19 02:58:42;;;;;;;28.77;18.90;;;;;;;-2.90;79.83;100523.88;99438;1174;86770;-64
2021/03/19 03:00:48;;;;;;;30.20;19.37;;;;;;;-2.83;79.45;100514.62;99450;1173;74923;-64
2021/03/19 03:02:53;;;;;;;29.05;18.00;;;;;;;-2.80;79.83;100509.95;99447;1175;89311;-64
2021/03/19 03:04:58;;;;;;;25.40;16.30;;;;;;;-2.80;79.90;100519.70;99421;1173;83431;-62
2021/03/19 03:07:07;;;;;;;24.90;15.90;;;;;;;-2.80;79.50;100512.59;99453;1175;67184;-62
2021/03/19 03:09:20;;;;;;;26.25;17.25;;;;;;;-2.80;79.93;100515.23;99439;1174;87487;-64
2021/03/19 03:11:25;;;;;;;24.90;14.50;;;;;;;-2.80;79.82;100527.63;99450;1175;75877;-65
2021/03/19 03:13:30;;;;;;;24.05;14.55;;;;;;;-2.76;79.50;100521.17;99437;1175;88692;-64
2021/03/19 03:15:36;;;;;;;23.30;12.80;;;;;;;-2.79;79.73;100524.88;99419;1175;82974;-65
2021/03/19 03:17:42;;;;;;;23.25;13.10;;;;;;;-2.79;79.80;100527.52;99445;1175;67009;-67
2021/03/19 03:19:47;;;;;;;20.10;12.35;;;;;;;-2.76;79.68;100519.39;99429;1175;86544;-64
2021/03/19 03:21:54;;;;;;;19.60;12.45;;;;;;;-2.76;79.50;100518.53;99441;1171;75028;-64
2021/03/19 03:24:00;;;;;;;18.40;11.70;;;;;;;-2.75;79.42;100513.16;99442;1175;89646;-64
2021/03/19 03:26:05;;;;;;;20.30;13.15;;;;;;;-2.70;79.80;100520.77;99427;1175;82409;-63
2021/03/19 03:28:12;;;;;;;20.07;11.30;;;;;;;-2.71;79.48;100516.42;99438;1174;67052;-64
2021/03/19 03:30:23;;;;;;;20.30;12.13;;;;;;;-2.63;79.20;100520.25;99433;1175;87293;-64
2021/03/19 03:32:28;;;;;;;20.20;11.30;;;;;;;-2.55;79.74;100525.02;99436;1173;75304;-64
2021/03/19 03:34:33;;;;;;;20.10;11.90;;;;;;;-2.48;79.76;100521.88;99443;1175;90015;-62
2021/03/19 03:36:40;;;;;;;21.90;12.00;;;;;;;-2.39;79.69;100520.41;99420;1172;82935;-62
2021/03/19 03:38:46;;;;;;;20.00;11.40;;;;;;;-2.33;80.09;100517.33;99451;1168;67441;-64
2021/03/19 03:40:56;;;;;;;17.15;11.65;;;;;;;-2.31;79.49;100520.73;99430;1175;86958;-64
2021/03/19 03:43:05;;;;;;;19.63;11.73;;;;;;;-2.32;79.21;100519.03;99449;1167;75955;-64
2021/03/19 03:45:14;;;;;;;23.00;11.20;;;;;;;-2.34;79.35;100514.80;99429;1171;89722;-63
2021/03/19 03:47:20;;;;;;;20.20;11.60;;;;;;;-2.34;80.02;100520.09;99427;1173;82246;-64
2021/03/19 03:49:27;;;;;;;23.50;12.40;;;;;;;-2.32;79.52;100524.31;99448;1175;66951;-63
2021/03/19 03:51:32;;;;;;;21.00;12.20;;;;;;;-2.37;79.30;100518.50;99435;1175;87750;-62
2021/03/19 03:53:40;;;;;;;19.80;11.65;;;;;;;-2.33;79.77;100524.44;99450;1175;76609;-63
2021/03/19 03:55:45;;;;;;;18.35;11.50;;;;;;;-2.35;79.48;100524.52;99445;1175;89068;-61
2021/03/19 03:57:53;;;;;;;23.90;12.35;;;;;;;-2.31;79.86;100522.53;99429;1171;81983;-62
2021/03/19 04:00:03;;;;;;;22.25;12.30;;;;;;;-2.31;79.38;100525.17;99449;1168;67133;-62
2021/03/19 04:02:25;;;;;;;20.30;11.50;;;;;;;-2.33;79.79;100516.50;99431;1175;87897;-61
2021/03/19 04:04:30;;;;;;;22.57;12.90;;;;;;;-2.28;79.41;100520.50;99450;1175;75976;-63
2021/03/19 04:06:36;;;;;;;18.97;11.57;;;;;;;-2.27;79.22;100526.64;99447;1172;88322;-63
2021/03/19 04:08:41;;;;;;;21.57;12.57;;;;;;;-2.22;79.80;100520.08;99433;1175;82554;-63
2021/03/19 04:10:48;;;;;;;22.55;12.20;;;;;;;-2.23;79.61;100518.41;99448;1167;68866;-62
2021/03/19 04:12:55;;;;;;;23.20;12.90;;;;;;;-2.22;79.89;100522.73;99440;1175;86627;-62
2021/03/19 04:15:00;;;;;;;20.90;11.90;;;;;;;-2.12;79.51;100525.60;99453;1171;76039;-63
2021/03/19 04:17:10;;;;;;;22.10;12.10;;;;;;;-2.14;79.62;100528.33;99441;1171;88925;-63
2021/03/19 04:19:16;;;;;;;18.40;11.10;;;;;;;-2.15;79.77;100528.45;99408;1168;82580;-62
2021/03/19 04:21:21;;;;;;;20.50;12.45;;;;;;;-2.15;79.63;100531.10;99450;1173;66871;-62
2021/03/19 04:23:27;;;;;;;22.20;12.00;;;;;;;-2.14;79.91;100528.33;99429;1174;87902;-62
2021/03/19 04:25:33;;;;;;;22.45;11.70;;;;;;;-2.20;79.63;100527.93;99446;1167;76062;-63
2021/03/19 04:27:46;;;;;;;21.15;11.90;;;;;;;-2.16;79.99;100532.05;99448;1174;88862;-63
2021/03/19 04:29:55;;;;;;;21.20;11.80;;;;;;;-2.15;80.03;100523.16;99423;1174;82491;-62
2021/03/19 04:32:04;;;;;;;19.07;11.60;;;;;;;-2.15;80.01;100521.38;99443;1174;67040;-62
2021/03/19 04:34:09;;;;;;;22.30;12.75;;;;;;;-2.09;79.67;100526.25;99436;1173;86922;-60
2021/03/19 04:36:37;;;;;;;17.15;11.40;;;;;;;-2.10;80.05;100515.75;99456;1174;75680;-61
2021/03/19 04:38:43;;;;;;;21.40;12.60;;;;;;;-2.11;79.94;100520.19;99440;1168;89577;-61
2021/03/19 04:40:49;;;;;;;20.70;12.10;;;;;;;-2.10;79.68;100519.25;99417;1174;83146;-61
2021/03/19 04:42:56;;;;;;;21.00;12.45;;;;;;;-2.08;80.04;100516.48;99445;1171;67117;-61
2021/03/19 04:45:02;;;;;;;19.00;11.90;;;;;;;-2.13;80.09;100522.10;99435;1171;86456;-64
2021/03/19 04:47:07;;;;;;;20.60;12.10;;;;;;;-2.12;79.66;100520.31;99446;1170;74821;-64
2021/03/19 04:49:13;;;;;;;23.80;12.55;;;;;;;-2.12;80.12;100515.87;99433;1174;89752;-61
2021/03/19 04:51:19;;;;;;;21.17;11.73;;;;;;;-2.15;79.80;100518.72;99435;1174;83204;-61
2021/03/19 04:53:24;;;;;;;21.70;12.00;;;;;;;-2.21;79.38;100520.93;99440;1174;66946;-61
2021/03/19 04:55:30;;;;;;;20.27;12.67;;;;;;;-2.26;79.23;100513.33;99442;1171;87558;-64
2021/03/19 04:57:35;;;;;;;20.40;11.40;;;;;;;-2.29;79.62;100516.17;99448;1174;75309;-64
2021/03/19 04:59:40;;;;;;;20.60;11.60;;;;;;;-2.30;79.51;100509.18;99448;1174;89387;-61
2021/03/19 05:01:52;;;;;;;21.60;13.00;;;;;;;-2.42;79.49;100512.69;99423;1174;82518;-60
2021/03/19 05:03:57;;;;;;;22.20;12.30;;;;;;;-2.42;79.29;100517.97;99458;1174;66882;-64
2021/03/19 05:06:06;;;;;;;21.30;12.80;;;;;;;-2.47;79.75;100510.33;99436;1171;86996;-65
2021/03/19 05:08:11;;;;;;;19.33;11.83;;;;;;;-2.53;79.71;100515.20;99457;1167;74865;-65
2021/03/19 05:10:20;;;;;;;21.30;12.50;;;;;;;-2.52;79.49;100508.95;99446;1174;88409;-62
2021/03/19 05:12:26;;;;;;;20.60;11.85;;;;;;;-2.51;79.34;100515.94;99423;1171;82097;-62
2021/03/19 05:14:31;;;;;;;21.87;12.00;;;;;;;-2.52;79.60;100523.02;99442;1174;67728;-65
2021/03/19 05:16:39;;;;;;;23.00;12.90;;;;;;;-2.49;79.19;100516.67;99441;1168;86441;-66
2021/03/19 05:18:44;;;;;;;22.70;12.30;;;;;;;-2.45;79.48;100523.47;99451;1174;75538;-65
2021/03/19 05:20:50;;;;;;;21.60;13.90;;;;;;;-2.45;79.36;100523.47;99434;1174;91427;-63
2021/03/19 05:22:56;;;;;;;22.40;13.20;;;;;;;-2.37;79.41;100525.58;99421;1171;82294;-64
2021/03/19 05:25:02;;;;;;;18.15;12.25;;;;;;;-2.33;79.15;100519.15;99443;1168;66903;-65
2021/03/19 05:27:07;;;;;;;22.30;13.05;;;;;;;-2.39;79.37;100523.05;99433;1174;88288;-65
2021/03/19 05:29:14;;;;;;;22.40;12.20;;;;;;;-2.37;79.29;100526.44;99440;1174;74937;-65
2021/03/19 05:31:19;;;;;;;21.65;12.40;;;;;;;-2.31;79.90;100536.61;99443;1167;89081;-65
2021/03/19 05:33:26;;;;;;;21.90;13.00;;;;;;;-2.30;79.43;100532.14;99431;1171;81563;-65
2021/03/19 05:35:31;;;;;;;21.35;13.30;;;;;;;-2.23;79.67;100534.28;99453;1170;66944;-62
2021/03/19 05:37:37;;;;;;;22.90;13.35;;;;;;;-2.14;79.79;100527.52;99429;1168;87831;-62
2021/03/19 05:39:45;;;;;;;20.30;12.10;;;;;;;-2.03;79.79;100530.23;99446;1174;76291;-65
2021/03/19 05:41:53;;;;;;;21.10;12.80;;;;;;;-1.92;79.89;100532.98;99434;1171;89642;-64
2021/03/19 05:44:05;;;;;;;23.10;13.50;;;;;;;-1.85;79.98;100548.36;99421;1174;82034;-62
2021/03/19 05:46:14;;;;;;;23.70;13.20;;;;;;;-1.73;80.47;100546.63;99444;1174;67080;-62
2021/03/19 05:48:20;;;;;;;21.60;13.93;;;;;;;-1.47;80.76;100550.09;99437;1167;87073;-62
2021/03/19 05:50:33;;;;;;;25.13;14.43;;;;;;;-1.25;80.09;100552.89;99444;1174;75890;-62
2021/03/19 05:52:42;;;;;;;23.73;15.17;;;;;;;-1.07;80.16;100545.42;99448;1174;89224;-62
2021/03/19 05:54:48;;;;;;;25.60;15.70;;;;;;;-0.56;80.60;100553.97;99431;1174;82567;-62
2021/03/19 05:57:15;;;;;;;26.45;15.65;;;;;;;0.05;80.46;100550.15;99441;1174;66972;-62
2021/03/19 05:59:24;;;;;;;26.60;14.20;;;;;;;0.09;79.87;100552.44;99450;1168;86887;-62
2021/03/19 06:01:29;;;;;;;22.80;13.90;;;;;;;-0.01;79.43;100544.35;99440;1175;76069;-62
2021/03/19 06:03:37;;;;;;;23.27;14.47;;;;;;;-0.09;79.52;100537.94;99445;1174;89739;-62
2021/03/19 06:06:01;;;;;;;24.10;14.73;;;;;;;-0.11;79.63;100547.84;99423;1171;81784;-62
2021/03/19 06:08:09;;;;;;;23.10;13.65;;;;;;;-0.13;79.82;100547.94;99453;1174;67064;-61
2021/03/19 06:10:28;;;;;;;21.40;13.50;;;;;;;-0.16;79.63;100542.86;99436;1167;86915;-65
2021/03/19 06:12:33;;;;;;;21.90;14.10;;;;;;;-0.18;79.76;100546.60;99443;1174;75564;-65
2021/03/19 06:14:49;;;;;;;24.35;13.90;;;;;;;-0.18;79.71;100549.25;99438;1171;89676;-65
2021/03/19 06:17:10;;;;;;;22.40;13.50;;;;;;;-0.18;79.55;100550.11;99428;1174;82258;-65
2021/03/19 06:19:38;;;;;;;23.45;14.15;;;;;;;-0.07;79.59;100552.78;99442;1167;67085;-62
2021/03/19 06:21:44;;;;;;;22.63;13.97;;;;;;;-0.01;79.70;100548.81;99440;1174;87894;-60
2021/03/19 06:24:25;;;;;;;22.50;13.65;;;;;;;0.06;79.13;100551.81;99446;1171;74809;-60
2021/03/19 06:26:34;;;;;;;20.85;12.75;;;;;;;0.21;79.56;100547.98;99443;1174;89404;-60
2021/03/19 06:28:41;;;;;;;22.33;13.07;;;;;;;0.24;79.84;100545.94;99421;1174;82194;-63
2021/03/19 06:30:46;;;;;;;22.20;13.90;;;;;;;0.38;79.36;100547.52;99460;1168;67699;-64
2021/03/19 06:33:06;;;;;;;20.43;12.30;;;;;;;0.50;79.47;100555.34;99433;1174;87475;-63
2021/03/19 06:35:30;;;;;;;19.80;13.00;;;;;;;0.55;79.38;100550.51;99447;1171;75079;-60
2021/03/19 06:37:40;;;;;;;19.30;12.50;;;;;;;0.55;79.30;100555.83;99443;1168;89633;-61
2021/03/19 06:39:52;;;;;;;21.35;12.85;;;;;;;0.58;79.32;100544.95;99426;1174;83173;-64
2021/03/19 06:42:12;;;;;;;20.30;13.00;;;;;;;0.65;78.89;100547.13;99446;1170;66990;-64
2021/03/19 06:44:21;;;;;;;19.20;12.70;;;;;;;0.69;79.07;100553.91;99450;1168;87186;-64
2021/03/19 06:46:41;;;;;;;19.95;13.10;;;;;;;0.85;79.24;100551.70;99447;1175;75702;-63
2021/03/19 06:49:00;;;;;;;20.30;12.10;;;;;;;0.91;79.09;100544.05;99450;1171;89549;-64
2021/03/19 06:51:12;;;;;;;22.70;13.70;;;;;;;1.02;78.87;100548.49;99428;1174;82231;-63
2021/03/19 06:53:23;;;;;;;22.20;13.15;;;;;;;1.08;79.22;100548.00;99458;1174;67203;-64
2021/03/19 06:55:39;;;;;;;21.55;13.95;;;;;;;1.11;78.79;100543.28;99439;1174;87283;-60
2021/03/19 06:57:49;;;;;;;21.50;13.80;;;;;;;1.19;78.86;100547.97;99451;1174;75979;-60
2021/03/19 07:00:01;;;;;;;28.40;17.55;;;;;;;1.34;78.77;100553.84;99447;1168;89200;-63
2021/03/19 07:02:49;;;;;;;31.20;18.25;;;;;;;1.66;78.87;100552.85;99428;1171;83097;-60
2021/03/19 07:05:05;;;;;;;39.50;22.90;;;;;;;1.89;78.61;100555.40;99452;1168;66830;-60
2021/03/19 07:07:41;;;;;;;47.40;29.55;;;;;;;1.87;78.29;100560.84;99438;1174;86893;-60
2021/03/19 07:10:04;;;;;;;55.80;36.50;;;;;;;1.74;78.14;100550.39;99451;1174;75402;-63
2021/03/19 07:12:46;;;;;;;48.80;30.65;;;;;;;1.55;77.87;100555.57;99445;1174;89337;-63
2021/03/19 07:15:07;;;;;;;42.55;26.65;;;;;;;1.47;78.07;100554.52;99434;1174;82879;-64
2021/03/19 07:17:29;;;;;;;41.60;26.55;;;;;;;1.53;77.99;100554.02;99449;1174;67102;-63
2021/03/19 07:19:51;;;;;;;34.75;23.50;;;;;;;1.54;78.21;100555.71;99419;1174;86340;-63
2021/03/19 07:22:10;;;;;;;33.97;21.80;;;;;;;1.60;78.14;100557.84;99455;1174;75740;-63
2021/03/19 07:24:31;;;;;;;46.07;30.20;;;;;;;1.68;77.87;100558.03;99446;1171;89356;-62
2021/03/19 07:26:40;;;;;;;62.30;38.80;;;;;;;1.72;78.55;100554.16;99420;1168;82572;-59
2021/03/19 07:29:24;;;;;;;71.50;44.55;;;;;;;1.66;78.01;100559.99;99460;1174;66964;-60
2021/03/19 07:32:19;;;;;;;62.37;41.07;;;;;;;1.60;78.03;100560.50;99438;1174;87894;-60
2021/03/19 07:34:56;;;;;;;45.83;30.37;;;;;;;1.53;78.11;100570.83;99430;1175;75895;-59
2021/03/19 07:37:11;;;;;;;46.60;30.10;;;;;;;1.49;78.10;100564.06;99427;1176;89764;-59
2021/03/19 07:39:58;;;;;;;48.60;29.20;;;;;;;1.49;77.97;100569.38;99426;1175;81869;-61
2021/03/19 07:42:22;;;;;;;54.40;34.20;;;;;;;1.42;77.83;100565.55;99421;1171;67266;-61
2021/03/19 07:44:39;;;;;;;28.50;18.20;;;;;;;1.43;77.38;100567.23;99412;1171;88269;-61
2021/03/19 07:47:00;;;;;;;30.00;17.85;;;;;;;1.39;77.89;100559.63;99448;1171;75843;-60
2021/03/19 07:49:50;;;;;;;48.13;30.20;;;;;;;1.57;77.72;100563.41;99449;1168;88324;-63
2021/03/19 07:52:10;;;;;;;42.50;26.00;;;;;;;1.66;77.79;100559.99;99418;1171;82279;-64
2021/03/19 07:54:25;;;;;;;60.10;36.80;;;;;;;1.68;77.70;100563.36;99445;1174;66899;-62
2021/03/19 07:56:56;;;;;;;35.20;21.65;;;;;;;1.90;78.21;100559.73;99444;1174;87500;-60
2021/03/19 07:59:10;;;;;;;88.05;47.35;;;;;;;2.06;77.58;100558.30;99440;1175;74396;-65
2021/03/19 08:01:35;;;;;;;37.40;23.90;;;;;;;2.38;78.11;100558.20;99435;1174;89730;-63
2021/03/19 08:03:41;;;;;;;29.85;19.20;;;;;;;4.05;77.93;100551.81;99428;1174;81707;-62
2021/03/19 08:05:51;;;;;;;35.90;22.80;;;;;;;4.26;76.78;100551.63;99444;1168;67117;-64
2021/03/19 08:08:23;;;;;;;46.05;28.60;;;;;;;4.47;75.73;100544.23;99433;1174;87775;-62
2021/03/19 08:10:32;;;;;;;56.25;36.95;;;;;;;4.40;75.52;100553.81;99461;1171;74304;-65
2021/03/19 08:12:52;;;;;;;42.20;26.40;;;;;;;4.34;75.54;100552.56;99447;1171;88222;-63
2021/03/19 08:15:07;;;;;;;83.90;47.85;;;;;;;5.29;75.73;100553.92;99420;1171;82134;-59
2021/03/19 08:17:38;;;;;;;73.80;42.00;;;;;;;6.34;73.94;100551.30;99450;1171;66884;-61
2021/03/19 08:19:51;;;;;;;54.70;30.80;;;;;;;6.35;71.81;100547.60;99434;1168;87452;-60
2021/03/19 08:22:05;;;;;;;;;;;;;;;6.19;70.41;100547.50;99464;1174;76027;-61
2021/03/19 08:24:40;;;;;;;59.00;34.30;;;;;;;5.90;71.18;100553.17;99456;1168;89068;-61
2021/03/19 08:27:08;;;;;;;59.20;33.50;;;;;;;5.51;70.67;100546.42;99423;1174;82381;-61
2021/03/19 08:29:29;;;;;;;41.03;25.43;;;;;;;5.50;70.90;100552.77;99452;1174;67071;-61
2021/03/19 08:31:46;;;;;;;68.30;40.80;;;;;;;5.28;70.90;100552.23;99432;1174;87082;-60
2021/03/19 08:34:10;;;;;;;55.00;34.30;;;;;;;4.86;70.24;100544.90;99450;1168;74553;-61
2021/03/19 08:36:25;;;;;;;41.90;26.20;;;;;;;4.88;70.73;100548.27;99430;1174;89737;-60
2021/03/19 08:38:39;;;;;;;37.00;22.80;;;;;;;5.01;70.57;100543.39;99424;1174;81667;-60
2021/03/19 08:40:56;;;;;;;27.60;18.00;;;;;;;5.00;70.72;100547.89;99449;1171;66920;-64
2021/03/19 08:43:05;;;;;;;19.70;14.00;;;;;;;5.29;71.18;100547.72;99440;1175;87758;-64
2021/03/19 08:45:23;;;;;;;25.40;17.10;;;;;;;5.41;70.85;100551.88;99457;1167;74889;-65
2021/03/19 08:47:37;;;;;;;56.60;35.20;;;;;;;5.03;70.07;100547.59;99435;1174;89544;-65
2021/03/19 08:49:46;;;;;;;44.50;26.45;;;;;;;4.60;69.36;100563.46;99425;1174;82718;-64
2021/03/19 08:51:57;;;;;;;41.20;26.40;;;;;;;4.27;70.25;100559.50;99447;1168;67052;-64
2021/03/19 08:54:26;;;;;;;34.50;23.50;;;;;;;4.12;70.34;100560.95;99436;1171;86462;-64
2021/03/19 08:56:34;;;;;;;37.20;23.80;;;;;;;4.13;70.23;100549.26;99452;1168;75578;-63
2021/03/19 08:58:52;;;;;;;39.05;24.45;;;;;;;4.21;70.54;100545.85;99440;1173;89278;-62
2021/03/19 09:01:00;;;;;;;34.40;22.80;;;;;;;4.04;70.16;100555.45;99426;1174;81729;-60
2021/03/19 09:03:52;;;;;;;38.87;25.20;;;;;;;3.77;70.46;100552.69;99453;1168;67046;-61
2021/03/19 09:06:16;;;;;;;44.30;28.50;;;;;;;3.59;70.47;100552.58;99440;1174;86302;-65
2021/03/19 09:08:30;;;;;;;37.90;23.80;;;;;;;3.65;70.52;100556.51;99460;1168;75143;-60
2021/03/19 09:11:12;;;;;;;43.10;27.80;;;;;;;3.51;70.80;100550.62;99431;1174;90396;-63
2021/03/19 09:13:19;;;;;;;62.50;35.50;;;;;;;3.56;70.66;100556.38;99402;1174;83342;-62
2021/03/19 09:15:33;;;;;;;79.30;44.95;;;;;;;3.63;70.89;100555.78;99399;1171;67317;-63
2021/03/19 09:18:07;;;;;;;46.40;29.20;;;;;;;3.70;70.85;100554.25;99381;1174;87146;-62
2021/03/19 09:20:40;;;;;;;49.90;30.10;;;;;;;3.88;70.67;100552.53;99428;1175;74627;-63
2021/03/19 09:23:05;;;;;;;29.40;19.20;;;;;;;4.00;70.48;100549.58;99447;1171;88652;-63
2021/03/19 09:25:46;;;;;;;32.00;18.95;;;;;;;3.97;69.95;100557.88;99429;1173;83378;-62
2021/03/19 09:28:25;;;;;;;25.90;17.60;;;;;;;4.02;69.99;100554.77;99435;1174;67043;-63
2021/03/19 09:30:40;;;;;;;47.40;27.30;;;;;;;4.09;70.42;100548.69;99436;1174;87397;-59
2021/03/19 09:32:49;;;;;;;35.80;22.25;;;;;;;4.06;69.80;100551.69;99450;1167;75590;-61
2021/03/19 09:35:37;;;;;;;41.75;24.10;;;;;;;3.98;69.47;100548.86;99444;1167;89953;-63
2021/03/19 09:37:56;;;;;;;34.85;22.10;;;;;;;3.91;69.18;100549.58;99425;1175;82518;-63
2021/03/19 09:40:42;;;;;;;38.10;22.80;;;;;;;3.85;69.68;100550.14;99438;1174;67088;-62
2021/03/19 09:42:58;;;;;;;35.40;19.40;;;;;;;3.84;69.28;100557.34;99439;1171;87214;-63
2021/03/19 09:45:44;;;;;;;51.40;29.50;;;;;;;4.11;69.72;100549.41;99446;1174;75145;-60
2021/03/19 09:47:54;;;;;;;34.20;21.10;;;;;;;4.20;69.18;100552.20;99440;1171;89856;-60
2021/03/19 09:50:10;;;;;;;26.55;17.10;;;;;;;4.39;68.73;100546.80;99431;1171;81733;-60
2021/03/19 09:52:17;;;;;;;40.25;22.75;;;;;;;4.69;69.37;100550.05;99441;1174;66938;-61
2021/03/19 09:54:36;;;;;;;35.15;23.25;;;;;;;4.88;68.75;100551.78;99443;1173;87909;-62
2021/03/19 09:56:42;;;;;;;20.40;14.50;;;;;;;5.25;68.52;100549.84;99459;1168;75304;-60
2021/03/19 09:58:50;;;;;;;24.40;17.30;;;;;;;5.36;67.58;100552.31;99432;1174;89746;-63
2021/03/19 10:01:02;;;;;;;33.85;21.95;;;;;;;5.36;68.00;100548.78;99434;1174;81525;-64
2021/03/19 10:03:12;;;;;;;38.83;24.60;;;;;;;5.61;66.65;100555.22;99453;1168;66913;-64
2021/03/19 10:05:25;;;;;;;22.35;16.50;;;;;;;5.56;67.00;100549.48;99447;1167;87811;-65
2021/03/19 10:07:34;;;;;;;40.10;26.45;;;;;;;5.84;66.74;100553.76;99458;1174;74993;-64
2021/03/19 10:09:46;;;;;;;75.30;46.65;;;;;;;5.93;66.73;100559.05;99439;1174;89629;-63
2021/03/19 10:12:14;;;;;;;31.20;21.60;;;;;;;5.95;66.11;100556.22;99429;1171;81533;-64
2021/03/19 10:14:32;;;;;;;24.50;17.10;;;;;;;5.77;65.19;100560.72;99452;1168;66837;-64
2021/03/19 10:16:37;;;;;;;27.70;20.00;;;;;;;5.17;65.01;100552.45;99436;1173;87012;-62